FDB569 OMDB-VCBI
Flight info
| Callsign | FDB569 |
|---|---|
| Flight time | 4h 8m |
| Altitude | 33000 |
| Route | ANVIX L223 TARDI N629 GIDAN P570 EMURU M300 NITIX/N0456F350 M300 VASTU P895 BIKOK BIKOK1A |
| Aircraft | B738/M-SDFGHIRWX/LB1 |
Departure
| Time | 2026-05-06 15:05 |
|---|---|
| Airport | Dubai International Airport (OMDB) |
Arrival
| Time | 2026-05-06 19:13 |
|---|---|
| Airport | Bandaranaike International Colombo Airport (VCBI) |
| Time | Latitude | Longitude | Altitude | Speed | Heading |
|---|---|---|---|---|---|
| 2026-05-06 13:48 | 25.26735 | 55.34196 | 42 ft | 0 kts | 31° |
| 2026-05-06 14:47 | 25.26725 | 55.34189 | 42 ft | 2 kts | 31° |
| 2026-05-06 14:47 | 25.26709 | 55.34179 | 42 ft | 3 kts | 31° |
| 2026-05-06 14:48 | 25.26692 | 55.34167 | 42 ft | 3 kts | 31° |
| 2026-05-06 14:48 | 25.26677 | 55.34152 | 42 ft | 3 kts | 63° |
| 2026-05-06 14:48 | 25.26674 | 55.34142 | 42 ft | 0 kts | 76° |
| 2026-05-06 14:52 | 25.26675 | 55.34146 | 42 ft | 1 kts | 84° |
| 2026-05-06 14:53 | 25.26670 | 55.34159 | 42 ft | 2 kts | 128° |
| 2026-05-06 14:53 | 25.26655 | 55.34179 | 42 ft | 4 kts | 129° |
| 2026-05-06 14:53 | 25.26633 | 55.34212 | 42 ft | 6 kts | 123° |
| 2026-05-06 14:53 | 25.26609 | 55.34255 | 42 ft | 7 kts | 121° |
| 2026-05-06 14:54 | 25.26580 | 55.34306 | 42 ft | 8 kts | 121° |
| 2026-05-06 14:54 | 25.26548 | 55.34364 | 42 ft | 9 kts | 121° |
| 2026-05-06 14:54 | 25.26513 | 55.34427 | 42 ft | 10 kts | 121° |
| 2026-05-06 14:54 | 25.26477 | 55.34496 | 42 ft | 10 kts | 109° |
| 2026-05-06 14:55 | 25.26498 | 55.34560 | 42 ft | 9 kts | 44° |
| 2026-05-06 14:55 | 25.26493 | 55.34621 | 42 ft | 9 kts | 121° |
| 2026-05-06 14:55 | 25.26459 | 55.34684 | 42 ft | 10 kts | 121° |
| 2026-05-06 14:55 | 25.26422 | 55.34753 | 42 ft | 11 kts | 121° |
| 2026-05-06 14:56 | 25.26381 | 55.34828 | 42 ft | 12 kts | 121° |
| 2026-05-06 14:56 | 25.26336 | 55.34910 | 42 ft | 14 kts | 121° |
| 2026-05-06 14:56 | 25.26282 | 55.35004 | 42 ft | 15 kts | 123° |
| 2026-05-06 14:56 | 25.26224 | 55.35110 | 42 ft | 17 kts | 121° |
| 2026-05-06 14:57 | 25.26160 | 55.35224 | 42 ft | 18 kts | 121° |
| 2026-05-06 14:57 | 25.26093 | 55.35343 | 42 ft | 19 kts | 122° |
| 2026-05-06 14:57 | 25.26023 | 55.35471 | 42 ft | 20 kts | 121° |
| 2026-05-06 14:57 | 25.25949 | 55.35605 | 42 ft | 21 kts | 123° |
| 2026-05-06 14:58 | 25.25876 | 55.35732 | 42 ft | 18 kts | 122° |
| 2026-05-06 14:58 | 25.25814 | 55.35845 | 42 ft | 17 kts | 121° |
| 2026-05-06 14:58 | 25.25753 | 55.35955 | 42 ft | 17 kts | 121° |
| 2026-05-06 14:58 | 25.25690 | 55.36070 | 42 ft | 18 kts | 121° |
| 2026-05-06 14:59 | 25.25626 | 55.36186 | 42 ft | 18 kts | 122° |
| 2026-05-06 14:59 | 25.25559 | 55.36304 | 42 ft | 18 kts | 122° |
| 2026-05-06 14:59 | 25.25490 | 55.36428 | 42 ft | 19 kts | 121° |
| 2026-05-06 14:59 | 25.25420 | 55.36557 | 42 ft | 20 kts | 122° |
| 2026-05-06 15:00 | 25.25348 | 55.36686 | 42 ft | 20 kts | 121° |
| 2026-05-06 15:00 | 25.25278 | 55.36815 | 42 ft | 19 kts | 120° |
| 2026-05-06 15:00 | 25.25207 | 55.36940 | 42 ft | 19 kts | 122° |
| 2026-05-06 15:00 | 25.25136 | 55.37069 | 42 ft | 20 kts | 121° |
| 2026-05-06 15:01 | 25.25066 | 55.37202 | 42 ft | 20 kts | 120° |
| 2026-05-06 15:01 | 25.24991 | 55.37336 | 42 ft | 21 kts | 121° |
| 2026-05-06 15:01 | 25.24914 | 55.37471 | 42 ft | 21 kts | 121° |
| 2026-05-06 15:01 | 25.24838 | 55.37609 | 42 ft | 21 kts | 121° |
| 2026-05-06 15:02 | 25.24766 | 55.37742 | 42 ft | 19 kts | 121° |
| 2026-05-06 15:02 | 25.24703 | 55.37855 | 42 ft | 15 kts | 122° |
| 2026-05-06 15:02 | 25.24665 | 55.37929 | 42 ft | 10 kts | 91° |
| 2026-05-06 15:02 | 25.24706 | 55.37981 | 42 ft | 9 kts | 30° |
| 2026-05-06 15:03 | 25.24755 | 55.38013 | 42 ft | 6 kts | 30° |
| 2026-05-06 15:03 | 25.24790 | 55.38035 | 42 ft | 6 kts | 21° |
| 2026-05-06 15:03 | 25.24820 | 55.38011 | 42 ft | 7 kts | 301° |
| 2026-05-06 15:03 | 25.24849 | 55.37958 | 42 ft | 11 kts | 301° |
| 2026-05-06 15:04 | 25.24932 | 55.37808 | 42 ft | 47 kts | 302° |
| 2026-05-06 15:04 | 25.25220 | 55.37290 | 42 ft | 109 kts | 303° |
| 2026-05-06 15:04 | 25.25706 | 55.36399 | 42 ft | 162 kts | 302° |
| 2026-05-06 15:04 | 25.26351 | 55.35236 | 412 ft | 182 kts | 299° |
| 2026-05-06 15:05 | 25.27023 | 55.34030 | 1164 ft | 186 kts | 299° |
| 2026-05-06 15:05 | 25.27720 | 55.32777 | 1570 ft | 200 kts | 299° |
| 2026-05-06 15:05 | 25.28483 | 55.31404 | 1822 ft | 219 kts | 299° |
| 2026-05-06 15:05 | 25.28993 | 55.29766 | 2031 ft | 233 kts | 273° |
| 2026-05-06 15:06 | 25.28796 | 55.27976 | 2502 ft | 236 kts | 253° |
| 2026-05-06 15:06 | 25.28260 | 55.26273 | 3173 ft | 236 kts | 246° |
| 2026-05-06 15:06 | 25.27581 | 55.24617 | 3830 ft | 237 kts | 243° |
| 2026-05-06 15:06 | 25.26856 | 55.23001 | 4516 ft | 238 kts | 242° |
| 2026-05-06 15:07 | 25.26111 | 55.21358 | 5203 ft | 240 kts | 243° |
| 2026-05-06 15:07 | 25.25392 | 55.19683 | 5876 ft | 243 kts | 244° |
| 2026-05-06 15:07 | 25.24575 | 55.18047 | 6511 ft | 246 kts | 231° |
| 2026-05-06 15:07 | 25.23212 | 55.16890 | 7078 ft | 253 kts | 206° |
| 2026-05-06 15:08 | 25.22080 | 55.16491 | 7298 ft | 265 kts | 192° |
| 2026-05-06 15:08 | 25.19534 | 55.16606 | 7706 ft | 289 kts | 163° |
| 2026-05-06 15:08 | 25.17782 | 55.17716 | 8332 ft | 294 kts | 139° |
| 2026-05-06 15:08 | 25.16649 | 55.19284 | 8912 ft | 298 kts | 118° |
| 2026-05-06 15:09 | 25.16077 | 55.21017 | 9436 ft | 300 kts | 103° |
| 2026-05-06 15:09 | 25.15557 | 55.23260 | 10090 ft | 302 kts | 109° |
| 2026-05-06 15:09 | 25.15024 | 55.24725 | 10412 ft | 310 kts | 115° |
| 2026-05-06 15:10 | 25.13934 | 55.26814 | 10675 ft | 325 kts | 124° |
| 2026-05-06 15:10 | 25.12629 | 55.28919 | 10893 ft | 341 kts | 125° |
| 2026-05-06 15:10 | 25.11245 | 55.31134 | 11101 ft | 357 kts | 125° |
| 2026-05-06 15:10 | 25.09818 | 55.33415 | 11543 ft | 363 kts | 125° |
| 2026-05-06 15:11 | 25.08372 | 55.35728 | 12132 ft | 366 kts | 125° |
| 2026-05-06 15:11 | 25.06932 | 55.38030 | 12676 ft | 369 kts | 125° |
| 2026-05-06 15:11 | 25.05469 | 55.40367 | 13209 ft | 372 kts | 125° |
| 2026-05-06 15:11 | 25.03985 | 55.42737 | 13735 ft | 375 kts | 125° |
| 2026-05-06 15:12 | 25.02498 | 55.45112 | 14242 ft | 378 kts | 125° |
| 2026-05-06 15:12 | 25.00991 | 55.47517 | 14741 ft | 381 kts | 125° |
| 2026-05-06 15:12 | 24.99496 | 55.49902 | 15212 ft | 385 kts | 125° |
| 2026-05-06 15:12 | 24.97967 | 55.52339 | 15684 ft | 388 kts | 125° |
| 2026-05-06 15:13 | 24.96426 | 55.54798 | 16152 ft | 391 kts | 125° |
| 2026-05-06 15:13 | 24.94866 | 55.57281 | 16618 ft | 394 kts | 125° |
| 2026-05-06 15:13 | 24.93308 | 55.59778 | 17060 ft | 397 kts | 125° |
| 2026-05-06 15:13 | 24.91750 | 55.62274 | 17490 ft | 400 kts | 125° |
| 2026-05-06 15:14 | 24.90148 | 55.64838 | 17916 ft | 403 kts | 125° |
| 2026-05-06 15:14 | 24.88567 | 55.67361 | 18335 ft | 405 kts | 124° |
| 2026-05-06 15:14 | 24.86959 | 55.69925 | 18752 ft | 408 kts | 125° |
| 2026-05-06 15:14 | 24.85456 | 55.72320 | 19122 ft | 411 kts | 124° |
| 2026-05-06 15:15 | 24.83829 | 55.74908 | 19725 ft | 406 kts | 125° |
| 2026-05-06 15:15 | 24.82226 | 55.77460 | 20266 ft | 406 kts | 125° |
| 2026-05-06 15:15 | 24.80625 | 55.80005 | 20521 ft | 411 kts | 125° |
| 2026-05-06 15:15 | 24.78991 | 55.82601 | 20863 ft | 414 kts | 125° |
| 2026-05-06 15:16 | 24.77355 | 55.85213 | 21279 ft | 414 kts | 126° |
| 2026-05-06 15:16 | 24.75703 | 55.87843 | 21600 ft | 417 kts | 126° |
| 2026-05-06 15:16 | 24.74040 | 55.90484 | 21892 ft | 421 kts | 126° |
| 2026-05-06 15:16 | 24.72365 | 55.93139 | 22163 ft | 424 kts | 126° |
| 2026-05-06 15:17 | 24.70696 | 55.95780 | 22461 ft | 427 kts | 126° |
| 2026-05-06 15:17 | 24.68994 | 55.98472 | 22748 ft | 429 kts | 126° |
| 2026-05-06 15:17 | 24.67281 | 56.01179 | 23027 ft | 432 kts | 126° |
| 2026-05-06 15:17 | 24.65558 | 56.03902 | 23318 ft | 434 kts | 126° |
| 2026-05-06 15:18 | 24.63828 | 56.06631 | 23577 ft | 437 kts | 126° |
| 2026-05-06 15:18 | 24.62082 | 56.09385 | 23834 ft | 439 kts | 126° |
| 2026-05-06 15:18 | 24.60227 | 56.12022 | 24105 ft | 440 kts | 131° |
| 2026-05-06 15:18 | 24.58149 | 56.14509 | 24340 ft | 442 kts | 136° |
| 2026-05-06 15:19 | 24.55956 | 56.16912 | 24559 ft | 445 kts | 135° |
| 2026-05-06 15:19 | 24.53878 | 56.19446 | 24784 ft | 448 kts | 132° |
| 2026-05-06 15:19 | 24.51845 | 56.22060 | 25002 ft | 451 kts | 131° |
| 2026-05-06 15:19 | 24.49817 | 56.24701 | 25251 ft | 452 kts | 131° |
| 2026-05-06 15:20 | 24.47798 | 56.27312 | 25452 ft | 455 kts | 131° |
| 2026-05-06 15:20 | 24.45730 | 56.29967 | 25675 ft | 457 kts | 132° |
| 2026-05-06 15:20 | 24.43649 | 56.32626 | 25892 ft | 459 kts | 132° |
| 2026-05-06 15:20 | 24.41559 | 56.35287 | 26110 ft | 461 kts | 132° |
| 2026-05-06 15:21 | 24.39453 | 56.37964 | 26314 ft | 463 kts | 132° |
| 2026-05-06 15:21 | 24.37348 | 56.40636 | 26518 ft | 465 kts | 132° |
| 2026-05-06 15:21 | 24.35251 | 56.43295 | 26715 ft | 466 kts | 132° |
| 2026-05-06 15:21 | 24.33118 | 56.45997 | 26921 ft | 468 kts | 133° |
| 2026-05-06 15:22 | 24.30980 | 56.48706 | 27111 ft | 470 kts | 133° |
| 2026-05-06 15:22 | 24.28882 | 56.51463 | 27280 ft | 473 kts | 130° |
| 2026-05-06 15:22 | 24.26901 | 56.54356 | 27465 ft | 475 kts | 127° |
| 2026-05-06 15:22 | 24.24972 | 56.57325 | 27650 ft | 477 kts | 127° |
| 2026-05-06 15:23 | 24.23044 | 56.60294 | 27826 ft | 478 kts | 127° |
| 2026-05-06 15:23 | 24.21131 | 56.63236 | 27985 ft | 480 kts | 127° |
| 2026-05-06 15:23 | 24.19180 | 56.66206 | 28152 ft | 482 kts | 127° |
| 2026-05-06 15:23 | 24.17203 | 56.69197 | 28310 ft | 483 kts | 128° |
| 2026-05-06 15:24 | 24.15223 | 56.72182 | 28536 ft | 483 kts | 128° |
| 2026-05-06 15:24 | 24.13237 | 56.75166 | 28754 ft | 484 kts | 128° |
| 2026-05-06 15:24 | 24.11256 | 56.78140 | 28972 ft | 484 kts | 128° |
| 2026-05-06 15:24 | 24.09269 | 56.81120 | 29195 ft | 484 kts | 128° |
| 2026-05-06 15:25 | 24.07305 | 56.84061 | 29416 ft | 484 kts | 128° |
| 2026-05-06 15:25 | 24.05310 | 56.87048 | 29627 ft | 485 kts | 128° |
| 2026-05-06 15:25 | 24.03316 | 56.90038 | 29846 ft | 485 kts | 128° |
| 2026-05-06 15:25 | 24.01324 | 56.93021 | 30057 ft | 485 kts | 128° |
| 2026-05-06 15:26 | 23.99318 | 56.96018 | 30256 ft | 486 kts | 128° |
| 2026-05-06 15:26 | 23.97344 | 56.98965 | 30461 ft | 486 kts | 128° |
| 2026-05-06 15:26 | 23.95331 | 57.01966 | 30677 ft | 487 kts | 128° |
| 2026-05-06 15:26 | 23.93317 | 57.04968 | 30893 ft | 487 kts | 128° |
| 2026-05-06 15:27 | 23.91338 | 57.07915 | 31105 ft | 487 kts | 128° |
| 2026-05-06 15:27 | 23.89334 | 57.10900 | 31312 ft | 488 kts | 128° |
| 2026-05-06 15:27 | 23.87329 | 57.13895 | 31526 ft | 488 kts | 128° |
| 2026-05-06 15:27 | 23.85311 | 57.16902 | 31736 ft | 488 kts | 128° |
| 2026-05-06 15:28 | 23.83304 | 57.19888 | 31940 ft | 489 kts | 128° |
| 2026-05-06 15:28 | 23.81280 | 57.22895 | 32172 ft | 488 kts | 128° |
| 2026-05-06 15:28 | 23.79274 | 57.25873 | 32411 ft | 488 kts | 128° |
| 2026-05-06 15:28 | 23.77282 | 57.28829 | 32635 ft | 487 kts | 128° |
| 2026-05-06 15:29 | 23.75270 | 57.31812 | 32835 ft | 488 kts | 128° |
| 2026-05-06 15:29 | 23.71214 | 57.37790 | 32844 ft | 488 kts | 129° |
| 2026-05-06 15:30 | 23.67006 | 57.43569 | 32822 ft | 485 kts | 128° |
| 2026-05-06 15:30 | 23.62825 | 57.49291 | 32782 ft | 484 kts | 128° |
| 2026-05-06 15:31 | 23.58633 | 57.55033 | 32765 ft | 484 kts | 128° |
| 2026-05-06 15:31 | 23.54427 | 57.60793 | 32758 ft | 484 kts | 128° |
| 2026-05-06 15:32 | 23.48159 | 57.69373 | 32757 ft | 484 kts | 128° |
| 2026-05-06 15:32 | 23.43960 | 57.75111 | 32758 ft | 484 kts | 128° |
| 2026-05-06 15:33 | 23.39783 | 57.80825 | 32757 ft | 484 kts | 128° |
| 2026-05-06 15:33 | 23.35577 | 57.86559 | 32758 ft | 484 kts | 128° |
| 2026-05-06 15:34 | 23.31366 | 57.92290 | 32757 ft | 484 kts | 128° |
| 2026-05-06 15:34 | 23.27175 | 57.97985 | 32758 ft | 484 kts | 128° |
| 2026-05-06 15:35 | 23.23038 | 58.03751 | 32758 ft | 484 kts | 125° |
| 2026-05-06 15:35 | 23.19251 | 58.09821 | 32758 ft | 484 kts | 123° |
| 2026-05-06 15:36 | 23.15481 | 58.15897 | 32758 ft | 484 kts | 124° |
| 2026-05-06 15:36 | 23.11701 | 58.21902 | 32758 ft | 484 kts | 124° |
| 2026-05-06 15:37 | 23.07880 | 58.27939 | 32758 ft | 484 kts | 124° |
| 2026-05-06 15:37 | 23.04033 | 58.33935 | 32755 ft | 484 kts | 127° |
| 2026-05-06 15:38 | 22.99349 | 58.39105 | 32758 ft | 483 kts | 142° |
| 2026-05-06 15:38 | 22.93724 | 58.43074 | 32758 ft | 482 kts | 150° |
| 2026-05-06 15:39 | 22.87940 | 58.46800 | 32758 ft | 482 kts | 150° |
| 2026-05-06 15:39 | 22.82204 | 58.50558 | 32758 ft | 482 kts | 149° |
| 2026-05-06 15:40 | 22.76496 | 58.54321 | 32758 ft | 482 kts | 149° |
| 2026-05-06 15:40 | 22.70754 | 58.58113 | 32758 ft | 482 kts | 149° |
| 2026-05-06 15:41 | 22.65024 | 58.61896 | 32758 ft | 481 kts | 149° |
| 2026-05-06 15:41 | 22.59330 | 58.65650 | 32758 ft | 481 kts | 149° |
| 2026-05-06 15:42 | 22.53600 | 58.69424 | 32758 ft | 482 kts | 149° |
| 2026-05-06 15:42 | 22.47878 | 58.73201 | 32757 ft | 482 kts | 149° |
| 2026-05-06 15:43 | 22.42174 | 58.76962 | 32758 ft | 482 kts | 149° |
| 2026-05-06 15:43 | 22.36440 | 58.80732 | 32758 ft | 482 kts | 149° |
| 2026-05-06 15:44 | 22.30691 | 58.84506 | 32758 ft | 482 kts | 149° |
| 2026-05-06 15:44 | 22.25082 | 58.88397 | 32758 ft | 482 kts | 143° |
| 2026-05-06 15:45 | 22.20222 | 58.93340 | 32757 ft | 476 kts | 130° |
| 2026-05-06 15:45 | 22.15961 | 58.98792 | 32757 ft | 474 kts | 129° |
| 2026-05-06 15:46 | 22.11742 | 59.04267 | 32758 ft | 474 kts | 129° |
| 2026-05-06 15:46 | 22.07541 | 59.09705 | 32758 ft | 473 kts | 129° |
| 2026-05-06 15:47 | 22.03312 | 59.15169 | 32758 ft | 473 kts | 129° |
| 2026-05-06 15:47 | 21.99123 | 59.20592 | 32758 ft | 473 kts | 129° |
| 2026-05-06 15:48 | 21.94904 | 59.26050 | 32758 ft | 473 kts | 129° |
| 2026-05-06 15:48 | 21.90690 | 59.31490 | 32758 ft | 472 kts | 129° |
| 2026-05-06 15:49 | 21.86470 | 59.36929 | 32758 ft | 472 kts | 129° |
| 2026-05-06 15:49 | 21.82276 | 59.42327 | 32758 ft | 472 kts | 129° |
| 2026-05-06 15:50 | 21.78051 | 59.47759 | 32758 ft | 472 kts | 129° |
| 2026-05-06 15:50 | 21.73839 | 59.53182 | 32758 ft | 472 kts | 129° |
| 2026-05-06 15:51 | 21.69645 | 59.58569 | 32758 ft | 472 kts | 129° |
| 2026-05-06 15:51 | 21.65423 | 59.63977 | 32758 ft | 472 kts | 129° |
| 2026-05-06 15:52 | 21.61200 | 59.69379 | 32758 ft | 472 kts | 129° |
| 2026-05-06 15:52 | 21.56994 | 59.74753 | 32758 ft | 471 kts | 129° |
| 2026-05-06 15:53 | 21.52761 | 59.80142 | 32758 ft | 472 kts | 129° |
| 2026-05-06 15:53 | 21.48532 | 59.85506 | 32758 ft | 471 kts | 129° |
| 2026-05-06 15:54 | 21.44294 | 59.90890 | 32758 ft | 471 kts | 129° |
| 2026-05-06 15:54 | 21.40068 | 59.96262 | 32758 ft | 473 kts | 129° |
| 2026-05-06 15:55 | 21.36504 | 60.00778 | 32755 ft | 475 kts | 130° |
| 2026-05-06 15:55 | 21.32235 | 60.06178 | 32758 ft | 478 kts | 129° |
| 2026-05-06 15:56 | 21.27919 | 60.11631 | 32758 ft | 478 kts | 130° |
| 2026-05-06 15:56 | 21.23629 | 60.17049 | 32758 ft | 479 kts | 130° |
| 2026-05-06 15:57 | 21.19308 | 60.22511 | 32758 ft | 479 kts | 130° |
| 2026-05-06 15:57 | 21.14988 | 60.27967 | 32758 ft | 479 kts | 130° |
| 2026-05-06 15:58 | 21.10696 | 60.33381 | 32758 ft | 479 kts | 130° |
| 2026-05-06 15:58 | 21.06380 | 60.38823 | 32758 ft | 479 kts | 130° |
| 2026-05-06 15:59 | 21.02058 | 60.44267 | 32758 ft | 479 kts | 130° |
| 2026-05-06 15:59 | 20.97749 | 60.49714 | 32758 ft | 479 kts | 130° |
| 2026-05-06 16:00 | 20.93472 | 60.55105 | 32758 ft | 473 kts | 129° |
| 2026-05-06 16:00 | 20.89233 | 60.60441 | 32757 ft | 467 kts | 129° |
| 2026-05-06 16:01 | 20.85019 | 60.65738 | 32758 ft | 468 kts | 129° |
| 2026-05-06 16:01 | 20.80814 | 60.71027 | 32758 ft | 468 kts | 129° |
| 2026-05-06 16:02 | 20.76589 | 60.76333 | 32758 ft | 468 kts | 129° |
| 2026-05-06 16:02 | 20.72386 | 60.81598 | 32758 ft | 468 kts | 129° |
| 2026-05-06 16:03 | 20.68154 | 60.86892 | 32758 ft | 468 kts | 129° |
| 2026-05-06 16:03 | 20.63948 | 60.92146 | 32758 ft | 468 kts | 130° |
| 2026-05-06 16:04 | 20.59978 | 60.97643 | 32758 ft | 467 kts | 123° |
| 2026-05-06 16:04 | 20.56469 | 61.03487 | 32758 ft | 467 kts | 121° |
| 2026-05-06 16:05 | 20.53005 | 61.09364 | 32758 ft | 467 kts | 121° |
| 2026-05-06 16:05 | 20.49552 | 61.15178 | 32758 ft | 467 kts | 121° |
| 2026-05-06 16:06 | 20.46058 | 61.21032 | 32758 ft | 467 kts | 121° |
| 2026-05-06 16:06 | 20.42567 | 61.26869 | 32758 ft | 466 kts | 121° |
| 2026-05-06 16:07 | 20.39096 | 61.32686 | 32758 ft | 466 kts | 121° |
| 2026-05-06 16:07 | 20.35610 | 61.38508 | 32758 ft | 466 kts | 121° |
| 2026-05-06 16:08 | 20.32121 | 61.44324 | 32758 ft | 466 kts | 122° |
| 2026-05-06 16:08 | 20.28621 | 61.50149 | 32758 ft | 466 kts | 122° |
| 2026-05-06 16:09 | 20.25114 | 61.55978 | 32758 ft | 466 kts | 122° |
| 2026-05-06 16:09 | 20.21603 | 61.61805 | 32758 ft | 466 kts | 122° |
| 2026-05-06 16:10 | 20.18121 | 61.67578 | 32758 ft | 466 kts | 122° |
| 2026-05-06 16:10 | 20.14615 | 61.73385 | 32758 ft | 466 kts | 122° |
| 2026-05-06 16:11 | 20.11099 | 61.79201 | 32758 ft | 466 kts | 122° |
| 2026-05-06 16:11 | 20.07604 | 61.84980 | 32758 ft | 466 kts | 122° |
| 2026-05-06 16:12 | 20.04088 | 61.90784 | 32758 ft | 466 kts | 122° |
| 2026-05-06 16:12 | 20.00560 | 61.96605 | 32758 ft | 466 kts | 122° |
| 2026-05-06 16:13 | 19.97065 | 62.02365 | 32757 ft | 466 kts | 122° |
| 2026-05-06 16:13 | 19.93544 | 62.08163 | 32758 ft | 466 kts | 122° |
| 2026-05-06 16:14 | 19.90025 | 62.13949 | 32758 ft | 466 kts | 122° |
| 2026-05-06 16:14 | 19.86498 | 62.19746 | 32758 ft | 466 kts | 122° |
| 2026-05-06 16:15 | 19.82978 | 62.25525 | 32758 ft | 466 kts | 122° |
| 2026-05-06 16:15 | 19.79476 | 62.31268 | 32758 ft | 466 kts | 122° |
| 2026-05-06 16:16 | 19.75943 | 62.37056 | 32758 ft | 466 kts | 122° |
| 2026-05-06 16:16 | 19.72409 | 62.42841 | 32757 ft | 466 kts | 122° |
| 2026-05-06 16:17 | 19.68897 | 62.48585 | 32758 ft | 466 kts | 122° |
| 2026-05-06 16:17 | 19.65378 | 62.54335 | 32758 ft | 466 kts | 122° |
| 2026-05-06 16:18 | 19.61839 | 62.60111 | 32758 ft | 466 kts | 122° |
| 2026-05-06 16:18 | 19.58303 | 62.65877 | 32758 ft | 466 kts | 122° |
| 2026-05-06 16:19 | 19.54785 | 62.71608 | 32758 ft | 466 kts | 122° |
| 2026-05-06 16:19 | 19.51240 | 62.77377 | 32758 ft | 466 kts | 122° |
| 2026-05-06 16:20 | 19.47719 | 62.83104 | 32758 ft | 466 kts | 122° |
| 2026-05-06 16:20 | 19.44173 | 62.88864 | 32758 ft | 466 kts | 122° |
| 2026-05-06 16:21 | 19.40626 | 62.94622 | 32758 ft | 466 kts | 122° |
| 2026-05-06 16:21 | 19.37077 | 63.00375 | 32758 ft | 466 kts | 122° |
| 2026-05-06 16:22 | 19.33550 | 63.06090 | 32758 ft | 466 kts | 122° |
| 2026-05-06 16:22 | 19.30004 | 63.11830 | 32758 ft | 465 kts | 122° |
| 2026-05-06 16:23 | 19.26450 | 63.17577 | 32758 ft | 465 kts | 122° |
| 2026-05-06 16:23 | 19.22917 | 63.23284 | 32758 ft | 465 kts | 122° |
| 2026-05-06 16:24 | 19.19362 | 63.29021 | 32758 ft | 465 kts | 122° |
| 2026-05-06 16:24 | 19.15832 | 63.34729 | 32758 ft | 465 kts | 122° |
| 2026-05-06 16:25 | 19.12271 | 63.40473 | 32758 ft | 465 kts | 122° |
| 2026-05-06 16:25 | 19.08731 | 63.46168 | 32758 ft | 465 kts | 122° |
| 2026-05-06 16:26 | 19.05167 | 63.51893 | 32758 ft | 465 kts | 122° |
| 2026-05-06 16:26 | 19.01600 | 63.57618 | 32758 ft | 465 kts | 122° |
| 2026-05-06 16:27 | 18.98061 | 63.63294 | 32758 ft | 465 kts | 122° |
| 2026-05-06 16:27 | 18.94484 | 63.69020 | 32758 ft | 465 kts | 122° |
| 2026-05-06 16:28 | 18.90918 | 63.74724 | 32758 ft | 465 kts | 122° |
| 2026-05-06 16:28 | 18.87372 | 63.80390 | 32758 ft | 465 kts | 122° |
| 2026-05-06 16:29 | 18.83798 | 63.86096 | 32758 ft | 465 kts | 122° |
| 2026-05-06 16:29 | 18.80230 | 63.91797 | 32758 ft | 465 kts | 122° |
| 2026-05-06 16:30 | 18.77266 | 63.96544 | 32758 ft | 465 kts | 122° |
| 2026-05-06 16:30 | 18.73116 | 64.03176 | 32758 ft | 465 kts | 122° |
| 2026-05-06 16:31 | 18.69547 | 64.08870 | 32758 ft | 465 kts | 122° |
| 2026-05-06 16:31 | 18.65987 | 64.14542 | 32758 ft | 465 kts | 122° |
| 2026-05-06 16:32 | 18.62413 | 64.20230 | 32758 ft | 465 kts | 122° |
| 2026-05-06 16:32 | 18.58833 | 64.25923 | 32758 ft | 465 kts | 122° |
| 2026-05-06 16:33 | 18.55269 | 64.31583 | 32758 ft | 465 kts | 122° |
| 2026-05-06 16:34 | 18.49891 | 64.40117 | 32758 ft | 465 kts | 122° |
| 2026-05-06 16:34 | 18.46331 | 64.45759 | 32758 ft | 465 kts | 123° |
| 2026-05-06 16:35 | 18.42741 | 64.51443 | 32758 ft | 465 kts | 123° |
| 2026-05-06 16:35 | 18.39156 | 64.57115 | 32758 ft | 465 kts | 123° |
| 2026-05-06 16:36 | 18.35590 | 64.62752 | 32758 ft | 465 kts | 123° |
| 2026-05-06 16:36 | 18.32003 | 64.68417 | 32758 ft | 465 kts | 123° |
| 2026-05-06 16:37 | 18.28417 | 64.74075 | 32758 ft | 465 kts | 123° |
| 2026-05-06 16:37 | 18.24828 | 64.79733 | 32758 ft | 465 kts | 123° |
| 2026-05-06 16:38 | 18.21232 | 64.85398 | 32758 ft | 464 kts | 123° |
| 2026-05-06 16:38 | 18.17658 | 64.91021 | 32758 ft | 464 kts | 123° |
| 2026-05-06 16:39 | 18.14064 | 64.96673 | 32758 ft | 464 kts | 123° |
| 2026-05-06 16:39 | 18.10467 | 65.02324 | 32758 ft | 464 kts | 123° |
| 2026-05-06 16:40 | 18.06872 | 65.07968 | 32758 ft | 464 kts | 123° |
| 2026-05-06 16:40 | 18.03294 | 65.13580 | 32758 ft | 464 kts | 123° |
| 2026-05-06 16:41 | 17.99693 | 65.19223 | 32757 ft | 464 kts | 123° |
| 2026-05-06 16:41 | 17.96696 | 65.23916 | 32758 ft | 464 kts | 123° |
| 2026-05-06 16:42 | 17.92504 | 65.30474 | 32758 ft | 464 kts | 123° |
| 2026-05-06 16:42 | 17.88903 | 65.36103 | 32758 ft | 464 kts | 123° |
| 2026-05-06 16:43 | 17.85902 | 65.40791 | 32758 ft | 464 kts | 123° |
| 2026-05-06 16:43 | 17.81711 | 65.47331 | 32758 ft | 464 kts | 123° |
| 2026-05-06 16:44 | 17.78711 | 65.52020 | 32758 ft | 464 kts | 123° |
| 2026-05-06 16:44 | 17.75100 | 65.57655 | 32758 ft | 464 kts | 123° |
| 2026-05-06 16:45 | 17.70904 | 65.64185 | 32758 ft | 464 kts | 123° |
| 2026-05-06 16:45 | 17.67895 | 65.68860 | 32757 ft | 464 kts | 123° |
| 2026-05-06 16:46 | 17.64275 | 65.74482 | 32758 ft | 464 kts | 123° |
| 2026-05-06 16:46 | 17.60682 | 65.80104 | 32756 ft | 464 kts | 122° |
| 2026-05-06 16:47 | 17.57198 | 65.85756 | 32758 ft | 464 kts | 122° |
| 2026-05-06 16:47 | 17.53688 | 65.91446 | 32758 ft | 464 kts | 122° |
| 2026-05-06 16:48 | 17.50200 | 65.97092 | 32758 ft | 464 kts | 122° |
| 2026-05-06 16:48 | 17.46681 | 66.02780 | 32758 ft | 464 kts | 122° |
| 2026-05-06 16:49 | 17.43165 | 66.08459 | 32758 ft | 464 kts | 122° |
| 2026-05-06 16:49 | 17.39685 | 66.14100 | 32758 ft | 464 kts | 122° |
| 2026-05-06 16:50 | 17.36174 | 66.19779 | 32758 ft | 464 kts | 122° |
| 2026-05-06 16:50 | 17.32654 | 66.25463 | 32758 ft | 463 kts | 122° |
| 2026-05-06 16:51 | 17.29161 | 66.31096 | 32758 ft | 463 kts | 122° |
| 2026-05-06 16:51 | 17.25653 | 66.36748 | 32758 ft | 463 kts | 122° |
| 2026-05-06 16:52 | 17.22132 | 66.42415 | 32757 ft | 463 kts | 122° |
| 2026-05-06 16:52 | 17.18622 | 66.48060 | 32758 ft | 463 kts | 122° |
| 2026-05-06 16:53 | 17.15096 | 66.53725 | 32758 ft | 463 kts | 122° |
| 2026-05-06 16:53 | 17.11603 | 66.59333 | 32758 ft | 463 kts | 122° |
| 2026-05-06 16:54 | 17.08077 | 66.64989 | 32758 ft | 463 kts | 122° |
| 2026-05-06 16:54 | 17.04556 | 66.70632 | 32758 ft | 463 kts | 122° |
| 2026-05-06 16:55 | 17.01047 | 66.76252 | 32758 ft | 463 kts | 122° |
| 2026-05-06 16:55 | 16.97522 | 66.81893 | 32758 ft | 463 kts | 122° |
| 2026-05-06 16:56 | 16.93994 | 66.87534 | 32758 ft | 463 kts | 122° |
| 2026-05-06 16:56 | 16.90481 | 66.93146 | 32758 ft | 463 kts | 122° |
| 2026-05-06 16:57 | 16.86950 | 66.98783 | 32758 ft | 463 kts | 122° |
| 2026-05-06 16:57 | 16.83441 | 67.04379 | 32758 ft | 463 kts | 122° |
| 2026-05-06 16:58 | 16.79903 | 67.10018 | 32758 ft | 463 kts | 122° |
| 2026-05-06 16:58 | 16.76374 | 67.15638 | 32758 ft | 463 kts | 122° |
| 2026-05-06 16:59 | 16.72839 | 67.21264 | 32758 ft | 463 kts | 122° |
| 2026-05-06 16:59 | 16.69325 | 67.26851 | 32758 ft | 463 kts | 122° |
| 2026-05-06 17:00 | 16.65787 | 67.32471 | 32758 ft | 463 kts | 122° |
| 2026-05-06 17:00 | 16.62264 | 67.38064 | 32758 ft | 463 kts | 122° |
| 2026-05-06 17:01 | 16.58724 | 67.43680 | 32758 ft | 463 kts | 122° |
| 2026-05-06 17:01 | 16.55185 | 67.49290 | 32758 ft | 462 kts | 122° |
| 2026-05-06 17:02 | 16.51641 | 67.54901 | 32758 ft | 462 kts | 122° |
| 2026-05-06 17:02 | 16.48119 | 67.60476 | 32758 ft | 462 kts | 122° |
| 2026-05-06 17:03 | 16.44578 | 67.66077 | 32758 ft | 462 kts | 122° |
| 2026-05-06 17:03 | 16.41043 | 67.71678 | 32758 ft | 462 kts | 122° |
| 2026-05-06 17:04 | 16.37520 | 67.77241 | 32758 ft | 462 kts | 122° |
| 2026-05-06 17:04 | 16.33967 | 67.82843 | 32758 ft | 462 kts | 122° |
| 2026-05-06 17:05 | 16.30420 | 67.88429 | 32758 ft | 462 kts | 122° |
| 2026-05-06 17:05 | 16.26892 | 67.93985 | 32758 ft | 462 kts | 122° |
| 2026-05-06 17:06 | 16.23367 | 67.99581 | 32757 ft | 462 kts | 122° |
| 2026-05-06 17:06 | 16.19852 | 68.05159 | 32758 ft | 462 kts | 122° |
| 2026-05-06 17:07 | 16.16325 | 68.10752 | 32758 ft | 462 kts | 122° |
| 2026-05-06 17:07 | 16.12790 | 68.16354 | 32758 ft | 462 kts | 122° |
| 2026-05-06 17:08 | 16.09262 | 68.21940 | 32758 ft | 462 kts | 122° |
| 2026-05-06 17:08 | 16.05763 | 68.27492 | 32758 ft | 462 kts | 122° |
| 2026-05-06 17:09 | 16.02236 | 68.33088 | 32758 ft | 462 kts | 122° |
| 2026-05-06 17:09 | 15.98722 | 68.38656 | 32758 ft | 462 kts | 122° |
| 2026-05-06 17:10 | 15.95189 | 68.44246 | 32758 ft | 462 kts | 122° |
| 2026-05-06 17:10 | 15.91650 | 68.49840 | 32758 ft | 462 kts | 122° |
| 2026-05-06 17:11 | 15.88141 | 68.55380 | 32758 ft | 462 kts | 122° |
| 2026-05-06 17:11 | 15.84609 | 68.60953 | 32758 ft | 462 kts | 122° |
| 2026-05-06 17:12 | 15.81076 | 68.66524 | 32758 ft | 462 kts | 122° |
| 2026-05-06 17:12 | 15.77550 | 68.72078 | 32758 ft | 461 kts | 122° |
| 2026-05-06 17:13 | 15.74008 | 68.77655 | 32758 ft | 461 kts | 122° |
| 2026-05-06 17:13 | 15.70485 | 68.83197 | 32758 ft | 461 kts | 122° |
| 2026-05-06 17:14 | 15.66943 | 68.88765 | 32758 ft | 461 kts | 122° |
| 2026-05-06 17:14 | 15.63395 | 68.94338 | 32757 ft | 461 kts | 122° |
| 2026-05-06 17:15 | 15.59879 | 68.99856 | 32758 ft | 461 kts | 122° |
| 2026-05-06 17:15 | 15.56330 | 69.05423 | 32758 ft | 461 kts | 122° |
| 2026-05-06 17:16 | 15.52784 | 69.10981 | 32758 ft | 461 kts | 122° |
| 2026-05-06 17:16 | 15.49265 | 69.16492 | 32758 ft | 461 kts | 122° |
| 2026-05-06 17:17 | 15.45717 | 69.22046 | 32758 ft | 461 kts | 122° |
| 2026-05-06 17:17 | 15.42174 | 69.27587 | 32758 ft | 461 kts | 122° |
| 2026-05-06 17:18 | 15.38644 | 69.33103 | 32757 ft | 461 kts | 122° |
| 2026-05-06 17:18 | 15.35096 | 69.38645 | 32758 ft | 461 kts | 122° |
| 2026-05-06 17:19 | 15.31544 | 69.44189 | 32757 ft | 461 kts | 122° |
| 2026-05-06 17:19 | 15.28000 | 69.49726 | 32758 ft | 461 kts | 122° |
| 2026-05-06 17:20 | 15.24470 | 69.55233 | 32758 ft | 461 kts | 122° |
| 2026-05-06 17:20 | 15.20913 | 69.60771 | 32758 ft | 461 kts | 123° |
| 2026-05-06 17:21 | 15.17355 | 69.66303 | 32758 ft | 461 kts | 123° |
| 2026-05-06 17:21 | 15.13823 | 69.71791 | 32758 ft | 461 kts | 123° |
| 2026-05-06 17:22 | 15.10277 | 69.77332 | 32758 ft | 461 kts | 122° |
| 2026-05-06 17:22 | 15.06756 | 69.82875 | 32758 ft | 461 kts | 122° |
| 2026-05-06 17:23 | 15.03252 | 69.88387 | 32758 ft | 460 kts | 122° |
| 2026-05-06 17:23 | 14.99718 | 69.93943 | 32757 ft | 460 kts | 122° |
| 2026-05-06 17:24 | 14.96195 | 69.99478 | 32758 ft | 460 kts | 122° |
| 2026-05-06 17:24 | 14.92687 | 70.04988 | 32758 ft | 460 kts | 122° |
| 2026-05-06 17:25 | 14.89170 | 70.10528 | 32758 ft | 460 kts | 122° |
| 2026-05-06 17:25 | 14.85646 | 70.16068 | 32758 ft | 460 kts | 122° |
| 2026-05-06 17:26 | 14.82125 | 70.21596 | 32758 ft | 460 kts | 122° |
| 2026-05-06 17:26 | 14.78621 | 70.27092 | 32758 ft | 460 kts | 122° |
| 2026-05-06 17:27 | 14.75085 | 70.32633 | 32758 ft | 460 kts | 122° |
| 2026-05-06 17:27 | 14.71577 | 70.38126 | 32758 ft | 460 kts | 122° |
| 2026-05-06 17:28 | 14.68051 | 70.43643 | 32758 ft | 460 kts | 122° |
| 2026-05-06 17:28 | 14.64520 | 70.49165 | 32757 ft | 460 kts | 122° |
| 2026-05-06 17:29 | 14.60986 | 70.54687 | 32758 ft | 460 kts | 122° |
| 2026-05-06 17:29 | 14.57476 | 70.60169 | 32758 ft | 460 kts | 122° |
| 2026-05-06 17:30 | 14.54519 | 70.64784 | 32758 ft | 460 kts | 122° |
| 2026-05-06 17:30 | 14.51005 | 70.70276 | 32758 ft | 460 kts | 122° |
| 2026-05-06 17:31 | 14.47468 | 70.75792 | 32758 ft | 460 kts | 122° |
| 2026-05-06 17:31 | 14.43945 | 70.81277 | 32758 ft | 460 kts | 122° |
| 2026-05-06 17:32 | 14.40409 | 70.86777 | 32762 ft | 460 kts | 122° |
| 2026-05-06 17:32 | 14.36855 | 70.92301 | 32858 ft | 469 kts | 122° |
| 2026-05-06 17:33 | 14.33265 | 70.97960 | 33209 ft | 471 kts | 122° |
| 2026-05-06 17:33 | 14.31471 | 71.00790 | 33489 ft | 470 kts | 122° |
| 2026-05-06 17:33 | 14.29684 | 71.03610 | 33744 ft | 469 kts | 122° |
| 2026-05-06 17:33 | 14.27905 | 71.06417 | 33999 ft | 468 kts | 122° |
| 2026-05-06 17:34 | 14.26118 | 71.09237 | 34251 ft | 468 kts | 122° |
| 2026-05-06 17:34 | 14.24338 | 71.12046 | 34506 ft | 467 kts | 122° |
| 2026-05-06 17:34 | 14.22561 | 71.14851 | 34742 ft | 466 kts | 122° |
| 2026-05-06 17:35 | 14.19027 | 71.20426 | 34753 ft | 467 kts | 122° |
| 2026-05-06 17:35 | 14.15483 | 71.26022 | 34757 ft | 465 kts | 122° |
| 2026-05-06 17:36 | 14.10194 | 71.34381 | 34758 ft | 465 kts | 122° |
| 2026-05-06 17:36 | 14.06648 | 71.39976 | 34758 ft | 465 kts | 122° |
| 2026-05-06 17:37 | 14.03112 | 71.45548 | 34758 ft | 465 kts | 122° |
| 2026-05-06 17:37 | 13.99563 | 71.51137 | 34758 ft | 465 kts | 122° |
| 2026-05-06 17:38 | 13.96043 | 71.56677 | 34758 ft | 465 kts | 122° |
| 2026-05-06 17:38 | 13.92483 | 71.62274 | 34758 ft | 465 kts | 122° |
| 2026-05-06 17:39 | 13.88935 | 71.67850 | 34757 ft | 465 kts | 122° |
| 2026-05-06 17:39 | 13.85411 | 71.73391 | 34758 ft | 465 kts | 122° |
| 2026-05-06 17:40 | 13.81870 | 71.78957 | 34758 ft | 465 kts | 122° |
| 2026-05-06 17:40 | 13.78314 | 71.84533 | 34758 ft | 465 kts | 122° |
| 2026-05-06 17:41 | 13.74787 | 71.90058 | 34757 ft | 465 kts | 122° |
| 2026-05-06 17:41 | 13.71224 | 71.95636 | 34758 ft | 465 kts | 122° |
| 2026-05-06 17:42 | 13.67606 | 72.01155 | 34758 ft | 465 kts | 126° |
| 2026-05-06 17:42 | 13.63564 | 72.06358 | 34758 ft | 465 kts | 129° |
| 2026-05-06 17:43 | 13.59460 | 72.11456 | 34758 ft | 465 kts | 129° |
| 2026-05-06 17:43 | 13.55340 | 72.16609 | 34758 ft | 465 kts | 128° |
| 2026-05-06 17:44 | 13.51228 | 72.21770 | 34758 ft | 465 kts | 128° |
| 2026-05-06 17:44 | 13.47153 | 72.26895 | 34758 ft | 465 kts | 128° |
| 2026-05-06 17:45 | 13.43057 | 72.32066 | 34756 ft | 465 kts | 128° |
| 2026-05-06 17:45 | 13.38970 | 72.37224 | 34758 ft | 465 kts | 128° |
| 2026-05-06 17:46 | 13.34906 | 72.42349 | 34758 ft | 465 kts | 128° |
| 2026-05-06 17:46 | 13.30818 | 72.47501 | 34758 ft | 465 kts | 128° |
| 2026-05-06 17:47 | 13.26727 | 72.52654 | 34758 ft | 465 kts | 128° |
| 2026-05-06 17:47 | 13.22629 | 72.57813 | 34758 ft | 465 kts | 128° |
| 2026-05-06 17:48 | 13.18563 | 72.62929 | 34758 ft | 465 kts | 128° |
| 2026-05-06 17:48 | 13.14469 | 72.68077 | 34758 ft | 465 kts | 128° |
| 2026-05-06 17:49 | 13.10359 | 72.73242 | 34758 ft | 465 kts | 128° |
| 2026-05-06 17:49 | 13.06296 | 72.78345 | 34757 ft | 465 kts | 128° |
| 2026-05-06 17:50 | 13.02189 | 72.83500 | 34758 ft | 465 kts | 128° |
| 2026-05-06 17:50 | 12.98112 | 72.88615 | 34757 ft | 465 kts | 128° |
| 2026-05-06 17:51 | 12.94006 | 72.93764 | 34758 ft | 465 kts | 128° |
| 2026-05-06 17:51 | 12.89908 | 72.98899 | 34758 ft | 465 kts | 128° |
| 2026-05-06 17:52 | 12.85835 | 73.04001 | 34758 ft | 465 kts | 128° |
| 2026-05-06 17:52 | 12.81714 | 73.09159 | 34758 ft | 465 kts | 128° |
| 2026-05-06 17:53 | 12.77628 | 73.14271 | 34758 ft | 465 kts | 128° |
| 2026-05-06 17:53 | 12.73525 | 73.19400 | 34758 ft | 465 kts | 128° |
| 2026-05-06 17:54 | 12.69449 | 73.24494 | 34758 ft | 465 kts | 128° |
| 2026-05-06 17:54 | 12.65342 | 73.29623 | 34758 ft | 465 kts | 128° |
| 2026-05-06 17:55 | 12.61227 | 73.34760 | 34758 ft | 465 kts | 128° |
| 2026-05-06 17:55 | 12.57160 | 73.39833 | 34773 ft | 461 kts | 129° |
| 2026-05-06 17:56 | 12.53113 | 73.44880 | 34783 ft | 454 kts | 129° |
| 2026-05-06 17:56 | 12.49119 | 73.49857 | 34787 ft | 454 kts | 129° |
| 2026-05-06 17:57 | 12.45099 | 73.54864 | 34787 ft | 454 kts | 129° |
| 2026-05-06 17:57 | 12.41108 | 73.59833 | 34785 ft | 454 kts | 129° |
| 2026-05-06 17:58 | 12.37094 | 73.64827 | 34787 ft | 454 kts | 129° |
| 2026-05-06 17:58 | 12.33069 | 73.69832 | 34787 ft | 454 kts | 129° |
| 2026-05-06 17:59 | 12.29081 | 73.74789 | 34787 ft | 454 kts | 129° |
| 2026-05-06 17:59 | 12.25059 | 73.79786 | 34787 ft | 454 kts | 129° |
| 2026-05-06 18:00 | 12.21035 | 73.84781 | 34787 ft | 454 kts | 129° |
| 2026-05-06 18:00 | 12.17040 | 73.89740 | 34788 ft | 454 kts | 129° |
| 2026-05-06 18:01 | 12.13016 | 73.94730 | 34787 ft | 454 kts | 129° |
| 2026-05-06 18:01 | 12.09019 | 73.99685 | 34787 ft | 454 kts | 129° |
| 2026-05-06 18:02 | 12.04997 | 74.04668 | 34787 ft | 454 kts | 129° |
| 2026-05-06 18:02 | 12.00972 | 74.09653 | 34787 ft | 454 kts | 129° |
| 2026-05-06 18:03 | 11.96972 | 74.14604 | 34787 ft | 454 kts | 129° |
| 2026-05-06 18:03 | 11.92953 | 74.19576 | 34787 ft | 454 kts | 129° |
| 2026-05-06 18:04 | 11.88923 | 74.24560 | 34787 ft | 454 kts | 129° |
| 2026-05-06 18:04 | 11.84899 | 74.29533 | 34787 ft | 454 kts | 129° |
| 2026-05-06 18:05 | 11.80897 | 74.34476 | 34788 ft | 454 kts | 129° |
| 2026-05-06 18:05 | 11.76868 | 74.39451 | 34787 ft | 454 kts | 129° |
| 2026-05-06 18:06 | 11.72860 | 74.44397 | 34787 ft | 454 kts | 129° |
| 2026-05-06 18:06 | 11.68830 | 74.49369 | 34787 ft | 454 kts | 129° |
| 2026-05-06 18:07 | 11.64810 | 74.54325 | 34788 ft | 454 kts | 129° |
| 2026-05-06 18:07 | 11.60804 | 74.59261 | 34787 ft | 453 kts | 129° |
| 2026-05-06 18:08 | 11.56773 | 74.64226 | 34787 ft | 453 kts | 129° |
| 2026-05-06 18:08 | 11.52749 | 74.69188 | 34787 ft | 453 kts | 129° |
| 2026-05-06 18:09 | 11.48722 | 74.74145 | 34787 ft | 453 kts | 129° |
| 2026-05-06 18:09 | 11.44714 | 74.79074 | 34787 ft | 453 kts | 129° |
| 2026-05-06 18:10 | 11.40671 | 74.84041 | 34787 ft | 453 kts | 129° |
| 2026-05-06 18:10 | 11.36659 | 74.88966 | 34787 ft | 453 kts | 129° |
| 2026-05-06 18:11 | 11.33308 | 74.93079 | 34787 ft | 453 kts | 129° |
| 2026-05-06 18:11 | 11.28595 | 74.98855 | 34787 ft | 453 kts | 129° |
| 2026-05-06 18:12 | 11.24556 | 75.03803 | 34787 ft | 453 kts | 129° |
| 2026-05-06 18:12 | 11.20538 | 75.08723 | 34787 ft | 453 kts | 129° |
| 2026-05-06 18:13 | 11.16497 | 75.13670 | 34787 ft | 453 kts | 129° |
| 2026-05-06 18:13 | 11.12491 | 75.18574 | 34787 ft | 453 kts | 129° |
| 2026-05-06 18:14 | 11.08449 | 75.23529 | 34787 ft | 453 kts | 129° |
| 2026-05-06 18:14 | 11.04418 | 75.28465 | 34788 ft | 453 kts | 129° |
| 2026-05-06 18:15 | 11.00401 | 75.33380 | 34787 ft | 453 kts | 129° |
| 2026-05-06 18:15 | 10.96382 | 75.38294 | 34788 ft | 451 kts | 129° |
| 2026-05-06 18:16 | 10.92391 | 75.43171 | 34787 ft | 445 kts | 129° |
| 2026-05-06 18:16 | 10.89088 | 75.47206 | 34787 ft | 446 kts | 129° |
| 2026-05-06 18:17 | 10.85105 | 75.52069 | 34787 ft | 446 kts | 129° |
| 2026-05-06 18:17 | 10.81132 | 75.56917 | 34787 ft | 446 kts | 129° |
| 2026-05-06 18:18 | 10.77179 | 75.61739 | 34787 ft | 446 kts | 129° |
| 2026-05-06 18:18 | 10.73201 | 75.66590 | 34787 ft | 446 kts | 129° |
| 2026-05-06 18:19 | 10.69229 | 75.71431 | 34787 ft | 446 kts | 129° |
| 2026-05-06 18:19 | 10.65251 | 75.76276 | 34787 ft | 446 kts | 129° |
| 2026-05-06 18:20 | 10.61287 | 75.81103 | 34787 ft | 446 kts | 129° |
| 2026-05-06 18:20 | 10.57306 | 75.85948 | 34787 ft | 446 kts | 129° |
| 2026-05-06 18:21 | 10.53359 | 75.90751 | 34787 ft | 446 kts | 129° |
| 2026-05-06 18:21 | 10.49373 | 75.95598 | 34787 ft | 446 kts | 129° |
| 2026-05-06 18:22 | 10.45391 | 76.00437 | 34787 ft | 446 kts | 129° |
| 2026-05-06 18:22 | 10.41417 | 76.05266 | 34787 ft | 445 kts | 129° |
| 2026-05-06 18:23 | 10.37456 | 76.10078 | 34787 ft | 445 kts | 129° |
| 2026-05-06 18:23 | 10.33478 | 76.14913 | 34787 ft | 445 kts | 129° |
| 2026-05-06 18:24 | 10.29501 | 76.19742 | 34787 ft | 445 kts | 129° |
| 2026-05-06 18:24 | 10.25544 | 76.24540 | 34787 ft | 445 kts | 129° |
| 2026-05-06 18:25 | 10.21554 | 76.29376 | 34787 ft | 445 kts | 129° |
| 2026-05-06 18:25 | 10.17571 | 76.34201 | 34787 ft | 445 kts | 130° |
| 2026-05-06 18:26 | 10.13608 | 76.38991 | 34787 ft | 445 kts | 130° |
| 2026-05-06 18:26 | 10.09603 | 76.43806 | 34787 ft | 445 kts | 130° |
| 2026-05-06 18:27 | 10.05602 | 76.48616 | 34787 ft | 445 kts | 130° |
| 2026-05-06 18:27 | 10.01622 | 76.53398 | 34787 ft | 445 kts | 130° |
| 2026-05-06 18:28 | 9.97619 | 76.58208 | 34787 ft | 445 kts | 130° |
| 2026-05-06 18:28 | 9.93619 | 76.63011 | 34787 ft | 445 kts | 130° |
| 2026-05-06 18:29 | 9.89652 | 76.67782 | 34787 ft | 445 kts | 130° |
| 2026-05-06 18:29 | 9.85649 | 76.72594 | 34787 ft | 445 kts | 130° |
| 2026-05-06 18:30 | 9.81652 | 76.77394 | 34787 ft | 445 kts | 130° |
| 2026-05-06 18:30 | 9.77668 | 76.82176 | 34787 ft | 445 kts | 130° |
| 2026-05-06 18:31 | 9.73661 | 76.86983 | 34787 ft | 445 kts | 130° |
| 2026-05-06 18:31 | 9.69661 | 76.91779 | 34787 ft | 445 kts | 130° |
| 2026-05-06 18:32 | 9.65685 | 76.96545 | 34787 ft | 445 kts | 130° |
| 2026-05-06 18:32 | 9.61672 | 77.01353 | 34787 ft | 446 kts | 130° |
| 2026-05-06 18:33 | 9.57668 | 77.06149 | 34787 ft | 445 kts | 130° |
| 2026-05-06 18:33 | 9.53676 | 77.10928 | 34787 ft | 446 kts | 130° |
| 2026-05-06 18:34 | 9.49670 | 77.15723 | 34787 ft | 444 kts | 130° |
| 2026-05-06 18:34 | 9.45697 | 77.20475 | 34787 ft | 445 kts | 130° |
| 2026-05-06 18:35 | 9.41689 | 77.25267 | 34787 ft | 444 kts | 130° |
| 2026-05-06 18:35 | 9.37689 | 77.30053 | 34787 ft | 445 kts | 130° |
| 2026-05-06 18:36 | 9.33710 | 77.34812 | 34816 ft | 444 kts | 130° |
| 2026-05-06 18:36 | 9.29712 | 77.39587 | 34833 ft | 444 kts | 130° |
| 2026-05-06 18:37 | 9.25706 | 77.44368 | 34841 ft | 444 kts | 130° |
| 2026-05-06 18:37 | 9.21720 | 77.49124 | 34840 ft | 444 kts | 130° |
| 2026-05-06 18:38 | 9.17711 | 77.53906 | 34840 ft | 444 kts | 130° |
| 2026-05-06 18:38 | 9.13704 | 77.58677 | 34840 ft | 444 kts | 130° |
| 2026-05-06 18:39 | 9.09699 | 77.63445 | 34842 ft | 444 kts | 130° |
| 2026-05-06 18:40 | 9.03705 | 77.70579 | 34842 ft | 444 kts | 130° |
| 2026-05-06 18:40 | 8.99721 | 77.75320 | 34842 ft | 444 kts | 130° |
| 2026-05-06 18:41 | 8.95708 | 77.80095 | 34842 ft | 444 kts | 130° |
| 2026-05-06 18:41 | 8.91704 | 77.84864 | 34843 ft | 444 kts | 130° |
| 2026-05-06 18:42 | 8.87722 | 77.89603 | 34843 ft | 444 kts | 130° |
| 2026-05-06 18:42 | 8.83710 | 77.94375 | 34842 ft | 444 kts | 130° |
| 2026-05-06 18:43 | 8.82568 | 77.95733 | 34842 ft | 444 kts | 130° |
| 2026-05-06 18:43 | 8.80198 | 77.98550 | 34842 ft | 444 kts | 130° |
| 2026-05-06 18:44 | 8.76229 | 78.03267 | 34842 ft | 437 kts | 130° |
| 2026-05-06 18:44 | 8.72332 | 78.07897 | 34846 ft | 433 kts | 130° |
| 2026-05-06 18:44 | 8.70381 | 78.10214 | 34643 ft | 431 kts | 130° |
| 2026-05-06 18:45 | 8.68449 | 78.12507 | 34318 ft | 425 kts | 130° |
| 2026-05-06 18:45 | 8.66540 | 78.14774 | 33901 ft | 421 kts | 130° |
| 2026-05-06 18:45 | 8.64643 | 78.17025 | 33482 ft | 419 kts | 130° |
| 2026-05-06 18:45 | 8.63395 | 78.18507 | 33208 ft | 417 kts | 130° |
| 2026-05-06 18:46 | 8.60906 | 78.21460 | 32658 ft | 414 kts | 130° |
| 2026-05-06 18:46 | 8.59040 | 78.23673 | 32246 ft | 411 kts | 130° |
| 2026-05-06 18:46 | 8.57186 | 78.25873 | 31834 ft | 409 kts | 131° |
| 2026-05-06 18:46 | 8.55339 | 78.28063 | 31422 ft | 408 kts | 131° |
| 2026-05-06 18:47 | 8.53521 | 78.30219 | 31026 ft | 406 kts | 131° |
| 2026-05-06 18:47 | 8.51695 | 78.32385 | 30539 ft | 406 kts | 131° |
| 2026-05-06 18:47 | 8.49849 | 78.34572 | 29903 ft | 411 kts | 131° |
| 2026-05-06 18:47 | 8.48002 | 78.36765 | 29550 ft | 407 kts | 131° |
| 2026-05-06 18:48 | 8.46166 | 78.38943 | 29226 ft | 403 kts | 131° |
| 2026-05-06 18:48 | 8.44350 | 78.41096 | 28847 ft | 400 kts | 131° |
| 2026-05-06 18:48 | 8.42553 | 78.43224 | 28380 ft | 395 kts | 131° |
| 2026-05-06 18:48 | 8.40793 | 78.45310 | 27796 ft | 393 kts | 131° |
| 2026-05-06 18:49 | 8.39021 | 78.47407 | 27373 ft | 389 kts | 131° |
| 2026-05-06 18:49 | 8.37263 | 78.49488 | 26979 ft | 387 kts | 131° |
| 2026-05-06 18:49 | 8.35540 | 78.51529 | 26600 ft | 385 kts | 131° |
| 2026-05-06 18:49 | 8.33780 | 78.53611 | 26217 ft | 383 kts | 131° |
| 2026-05-06 18:50 | 8.32078 | 78.55625 | 25844 ft | 381 kts | 130° |
| 2026-05-06 18:50 | 8.30359 | 78.57658 | 25469 ft | 378 kts | 130° |
| 2026-05-06 18:50 | 8.28650 | 78.59684 | 25097 ft | 376 kts | 130° |
| 2026-05-06 18:50 | 8.27036 | 78.61760 | 24726 ft | 374 kts | 126° |
| 2026-05-06 18:51 | 8.25523 | 78.63886 | 24363 ft | 371 kts | 124° |
| 2026-05-06 18:51 | 8.24055 | 78.66020 | 24001 ft | 369 kts | 124° |
| 2026-05-06 18:51 | 8.22617 | 78.68105 | 23647 ft | 366 kts | 124° |
| 2026-05-06 18:51 | 8.21152 | 78.70218 | 23286 ft | 364 kts | 124° |
| 2026-05-06 18:52 | 8.19697 | 78.72309 | 22927 ft | 362 kts | 124° |
| 2026-05-06 18:52 | 8.18251 | 78.74381 | 22571 ft | 360 kts | 124° |
| 2026-05-06 18:52 | 8.16806 | 78.76447 | 22211 ft | 358 kts | 124° |
| 2026-05-06 18:52 | 8.15389 | 78.78469 | 21857 ft | 357 kts | 126° |
| 2026-05-06 18:53 | 8.13953 | 78.80516 | 21501 ft | 356 kts | 125° |
| 2026-05-06 18:53 | 8.12517 | 78.82562 | 21148 ft | 355 kts | 125° |
| 2026-05-06 18:53 | 8.11090 | 78.84592 | 20800 ft | 354 kts | 125° |
| 2026-05-06 18:53 | 8.09664 | 78.86619 | 20455 ft | 353 kts | 124° |
| 2026-05-06 18:54 | 8.08246 | 78.88638 | 20112 ft | 352 kts | 124° |
| 2026-05-06 18:54 | 8.06849 | 78.90628 | 19773 ft | 350 kts | 124° |
| 2026-05-06 18:54 | 8.05437 | 78.92639 | 19432 ft | 349 kts | 125° |
| 2026-05-06 18:54 | 8.04037 | 78.94633 | 19092 ft | 348 kts | 125° |
| 2026-05-06 18:55 | 8.02632 | 78.96630 | 18753 ft | 347 kts | 126° |
| 2026-05-06 18:55 | 8.01238 | 78.98611 | 18418 ft | 346 kts | 126° |
| 2026-05-06 18:55 | 7.99859 | 79.00568 | 18089 ft | 345 kts | 126° |
| 2026-05-06 18:55 | 7.98473 | 79.02537 | 17759 ft | 343 kts | 127° |
| 2026-05-06 18:56 | 7.97090 | 79.04495 | 17447 ft | 341 kts | 123° |
| 2026-05-06 18:56 | 7.95723 | 79.06438 | 17131 ft | 339 kts | 124° |
| 2026-05-06 18:56 | 7.94349 | 79.08377 | 16801 ft | 337 kts | 123° |
| 2026-05-06 18:56 | 7.92994 | 79.10306 | 16470 ft | 335 kts | 123° |
| 2026-05-06 18:57 | 7.91666 | 79.12207 | 16151 ft | 333 kts | 123° |
| 2026-05-06 18:57 | 7.90328 | 79.14112 | 15837 ft | 331 kts | 127° |
| 2026-05-06 18:57 | 7.88986 | 79.15996 | 15511 ft | 330 kts | 124° |
| 2026-05-06 18:57 | 7.87653 | 79.17879 | 15187 ft | 329 kts | 124° |
| 2026-05-06 18:58 | 7.86324 | 79.19763 | 14863 ft | 328 kts | 124° |
| 2026-05-06 18:58 | 7.85014 | 79.21616 | 14549 ft | 327 kts | 125° |
| 2026-05-06 18:58 | 7.83693 | 79.23480 | 14229 ft | 326 kts | 124° |
| 2026-05-06 18:58 | 7.82376 | 79.25344 | 13909 ft | 325 kts | 124° |
| 2026-05-06 18:59 | 7.81068 | 79.27200 | 13592 ft | 324 kts | 125° |
| 2026-05-06 18:59 | 7.79763 | 79.29048 | 13277 ft | 323 kts | 124° |
| 2026-05-06 18:59 | 7.78459 | 79.30897 | 12957 ft | 321 kts | 125° |
| 2026-05-06 18:59 | 7.77164 | 79.32727 | 12652 ft | 320 kts | 125° |
| 2026-05-06 19:00 | 7.75887 | 79.34532 | 12342 ft | 319 kts | 125° |
| 2026-05-06 19:00 | 7.74594 | 79.36360 | 12028 ft | 318 kts | 125° |
| 2026-05-06 19:00 | 7.73309 | 79.38160 | 11831 ft | 314 kts | 125° |
| 2026-05-06 19:00 | 7.72459 | 79.39366 | 11641 ft | 312 kts | 125° |
| 2026-05-06 19:01 | 7.70796 | 79.41724 | 11251 ft | 311 kts | 125° |
| 2026-05-06 19:01 | 7.69972 | 79.42894 | 11058 ft | 310 kts | 125° |
| 2026-05-06 19:01 | 7.68312 | 79.45249 | 10653 ft | 308 kts | 124° |
| 2026-05-06 19:01 | 7.67072 | 79.47011 | 10381 ft | 306 kts | 124° |
| 2026-05-06 19:02 | 7.65853 | 79.48747 | 10184 ft | 301 kts | 124° |
| 2026-05-06 19:02 | 7.64653 | 79.50458 | 9953 ft | 297 kts | 125° |
| 2026-05-06 19:02 | 7.63860 | 79.51579 | 9768 ft | 296 kts | 124° |
| 2026-05-06 19:02 | 7.62667 | 79.53261 | 9486 ft | 294 kts | 126° |
| 2026-05-06 19:03 | 7.61486 | 79.54936 | 9201 ft | 293 kts | 126° |
| 2026-05-06 19:03 | 7.60302 | 79.56608 | 8912 ft | 292 kts | 126° |
| 2026-05-06 19:03 | 7.59122 | 79.58270 | 8614 ft | 291 kts | 126° |
| 2026-05-06 19:03 | 7.57940 | 79.59938 | 8317 ft | 291 kts | 126° |
| 2026-05-06 19:04 | 7.56768 | 79.61602 | 8021 ft | 290 kts | 126° |
| 2026-05-06 19:04 | 7.55615 | 79.63233 | 7726 ft | 288 kts | 126° |
| 2026-05-06 19:04 | 7.54454 | 79.64874 | 7426 ft | 287 kts | 126° |
| 2026-05-06 19:04 | 7.53295 | 79.66513 | 7126 ft | 286 kts | 126° |
| 2026-05-06 19:05 | 7.52142 | 79.68144 | 6826 ft | 284 kts | 126° |
| 2026-05-06 19:05 | 7.51005 | 79.69749 | 6528 ft | 283 kts | 126° |
| 2026-05-06 19:05 | 7.49852 | 79.71379 | 6224 ft | 282 kts | 126° |
| 2026-05-06 19:05 | 7.48731 | 79.72962 | 5927 ft | 280 kts | 126° |
| 2026-05-06 19:06 | 7.47594 | 79.74567 | 5625 ft | 278 kts | 126° |
| 2026-05-06 19:06 | 7.46485 | 79.76133 | 5323 ft | 271 kts | 126° |
| 2026-05-06 19:06 | 7.45394 | 79.77673 | 5031 ft | 268 kts | 126° |
| 2026-05-06 19:06 | 7.44325 | 79.79183 | 4740 ft | 267 kts | 126° |
| 2026-05-06 19:07 | 7.43249 | 79.80701 | 4442 ft | 265 kts | 126° |
| 2026-05-06 19:07 | 7.42179 | 79.82212 | 4144 ft | 264 kts | 127° |
| 2026-05-06 19:07 | 7.41113 | 79.83718 | 3862 ft | 262 kts | 127° |
| 2026-05-06 19:07 | 7.40056 | 79.85209 | 3634 ft | 260 kts | 127° |
| 2026-05-06 19:08 | 7.39021 | 79.86671 | 3407 ft | 258 kts | 127° |
| 2026-05-06 19:08 | 7.37992 | 79.88122 | 3175 ft | 250 kts | 127° |
| 2026-05-06 19:08 | 7.37002 | 79.89518 | 2955 ft | 240 kts | 127° |
| 2026-05-06 19:08 | 7.36050 | 79.90864 | 2740 ft | 231 kts | 126° |
| 2026-05-06 19:09 | 7.35132 | 79.92170 | 2537 ft | 224 kts | 128° |
| 2026-05-06 19:09 | 7.34189 | 79.93392 | 2341 ft | 219 kts | 130° |
| 2026-05-06 19:09 | 7.33248 | 79.94592 | 2184 ft | 218 kts | 129° |
| 2026-05-06 19:09 | 7.32270 | 79.95752 | 1965 ft | 214 kts | 138° |
| 2026-05-06 19:10 | 7.31035 | 79.96490 | 1757 ft | 207 kts | 162° |
| 2026-05-06 19:10 | 7.29625 | 79.96535 | 1611 ft | 202 kts | 189° |
| 2026-05-06 19:10 | 7.28362 | 79.96030 | 1557 ft | 188 kts | 206° |
| 2026-05-06 19:10 | 7.27278 | 79.95358 | 1486 ft | 178 kts | 211° |
| 2026-05-06 19:11 | 7.26309 | 79.94652 | 1452 ft | 172 kts | 214° |
| 2026-05-06 19:11 | 7.25354 | 79.93923 | 1467 ft | 172 kts | 214° |
| 2026-05-06 19:11 | 7.24389 | 79.93184 | 1317 ft | 177 kts | 214° |
| 2026-05-06 19:11 | 7.23420 | 79.92441 | 1084 ft | 169 kts | 214° |
| 2026-05-06 19:12 | 7.22527 | 79.91757 | 828 ft | 154 kts | 214° |
| 2026-05-06 19:12 | 7.21703 | 79.91126 | 623 ft | 148 kts | 214° |
| 2026-05-06 19:12 | 7.20889 | 79.90501 | 434 ft | 147 kts | 215° |
| 2026-05-06 19:12 | 7.20068 | 79.89872 | 247 ft | 149 kts | 215° |
| 2026-05-06 19:13 | 7.19240 | 79.89238 | 51 ft | 148 kts | 215° |
| 2026-05-06 19:13 | 7.18527 | 79.88691 | 37 ft | 99 kts | 217° |
| 2026-05-06 19:13 | 7.18169 | 79.88417 | 37 ft | 47 kts | 218° |
| 2026-05-06 19:13 | 7.17966 | 79.88256 | 37 ft | 20 kts | 219° |
| 2026-05-06 19:14 | 7.17912 | 79.88217 | 37 ft | 6 kts | 206° |
| 2026-05-06 19:14 | 7.17878 | 79.88216 | 37 ft | 5 kts | 151° |
| 2026-05-06 19:14 | 7.17855 | 79.88236 | 37 ft | 4 kts | 137° |
| 2026-05-06 19:14 | 7.17837 | 79.88256 | 37 ft | 4 kts | 122° |
| 2026-05-06 19:15 | 7.17824 | 79.88277 | 37 ft | 3 kts | 122° |
| 2026-05-06 19:15 | 7.17812 | 79.88296 | 37 ft | 3 kts | 122° |
| 2026-05-06 19:15 | 7.17799 | 79.88317 | 37 ft | 5 kts | 122° |
| 2026-05-06 19:15 | 7.17803 | 79.88354 | 37 ft | 7 kts | 49° |
| 2026-05-06 19:16 | 7.17851 | 79.88396 | 37 ft | 11 kts | 47° |
| 2026-05-06 19:16 | 7.17848 | 79.88446 | 37 ft | 8 kts | 139° |
| 2026-05-06 19:16 | 7.17816 | 79.88484 | 37 ft | 5 kts | 129° |
| 2026-05-06 19:16 | 7.17794 | 79.88513 | 37 ft | 6 kts | 127° |
| 2026-05-06 19:17 | 7.17763 | 79.88529 | 37 ft | 6 kts | 198° |
| 2026-05-06 19:17 | 7.17728 | 79.88504 | 37 ft | 7 kts | 217° |
| 2026-05-06 19:17 | 7.17704 | 79.88484 | 37 ft | 0 kts | 218° |